sensor_id;sensor_type;location;lat;lon;timestamp;pressure;altitude;pressure_sealevel;temperature;humidity
11830;BME280;5972;42.134;24.718;2023-04-01T00:01:05;98802.22;;;12.24;100.00
11830;BME280;5972;42.134;24.718;2023-04-01T00:03:33;98788.16;;;12.15;100.00
11830;BME280;5972;42.134;24.718;2023-04-01T00:06:00;98790.75;;;12.04;100.00
11830;BME280;5972;42.134;24.718;2023-04-01T00:08:28;98803.59;;;12.07;100.00
11830;BME280;5972;42.134;24.718;2023-04-01T00:10:55;98785.63;;;11.92;100.00
11830;BME280;5972;42.134;24.718;2023-04-01T00:13:25;98810.97;;;11.77;100.00
11830;BME280;5972;42.134;24.718;2023-04-01T00:15:52;98810.25;;;11.80;100.00
11830;BME280;5972;42.134;24.718;2023-04-01T00:18:19;98816.00;;;11.75;100.00
11830;BME280;5972;42.134;24.718;2023-04-01T00:20:48;98810.28;;;11.84;100.00
11830;BME280;5972;42.134;24.718;2023-04-01T00:23:16;98816.06;;;11.82;100.00
11830;BME280;5972;42.134;24.718;2023-04-01T00:25:43;98816.06;;;11.82;100.00
11830;BME280;5972;42.134;24.718;2023-04-01T00:28:10;98819.09;;;11.77;100.00
11830;BME280;5972;42.134;24.718;2023-04-01T00:30:39;98828.72;;;11.45;100.00
11830;BME280;5972;42.134;24.718;2023-04-01T00:33:05;98826.91;;;11.56;100.00
11830;BME280;5972;42.134;24.718;2023-04-01T00:35:32;98821.97;;;11.61;100.00
11830;BME280;5972;42.134;24.718;2023-04-01T00:38:00;98813.50;;;11.66;100.00
11830;BME280;5972;42.134;24.718;2023-04-01T00:40:29;98818.16;;;11.66;100.00
11830;BME280;5972;42.134;24.718;2023-04-01T00:42:57;98820.03;;;11.62;100.00
11830;BME280;5972;42.134;24.718;2023-04-01T00:45:27;98818.06;;;11.59;100.00
11830;BME280;5972;42.134;24.718;2023-04-01T00:47:56;98795.56;;;11.55;100.00
11830;BME280;5972;42.134;24.718;2023-04-01T00:50:26;98811.44;;;11.56;100.00
11830;BME280;5972;42.134;24.718;2023-04-01T00:52:55;98795.03;;;11.42;100.00
11830;BME280;5972;42.134;24.718;2023-04-01T00:55:23;98803.22;;;11.49;100.00
11830;BME280;5972;42.134;24.718;2023-04-01T00:57:52;98814.94;;;11.57;100.00
11830;BME280;5972;42.134;24.718;2023-04-01T01:00:19;98812.19;;;11.53;100.00
11830;BME280;5972;42.134;24.718;2023-04-01T01:02:49;98786.78;;;11.35;100.00
11830;BME280;5972;42.134;24.718;2023-04-01T01:05:23;98801.81;;;11.59;100.00
11830;BME280;5972;42.134;24.718;2023-04-01T01:08:01;98803.78;;;11.62;100.00
11830;BME280;5972;42.134;24.718;2023-04-01T01:10:31;98790.91;;;11.55;100.00
11830;BME280;5972;42.134;24.718;2023-04-01T01:13:05;98795.53;;;11.51;100.00
11830;BME280;5972;42.134;24.718;2023-04-01T01:15:37;98806.06;;;11.60;100.00
11830;BME280;5972;42.134;24.718;2023-04-01T01:18:09;98807.31;;;11.66;100.00
11830;BME280;5972;42.134;24.718;2023-04-01T01:21:14;98804.00;;;11.20;100.00
11830;BME280;5972;42.134;24.718;2023-04-01T01:24:09;98805.69;;;11.32;100.00
11830;BME280;5972;42.134;24.718;2023-04-01T01:26:55;98812.41;;;11.41;100.00
11830;BME280;5972;42.134;24.718;2023-04-01T01:32:37;98813.81;;;11.32;100.00
11830;BME280;5972;42.134;24.718;2023-04-01T01:35:16;98807.66;;;11.35;100.00
11830;BME280;5972;42.134;24.718;2023-04-01T01:37:46;98783.63;;;11.30;100.00
11830;BME280;5972;42.134;24.718;2023-04-01T01:40:17;98788.81;;;11.42;100.00
11830;BME280;5972;42.134;24.718;2023-04-01T01:42:48;98791.94;;;11.44;100.00
11830;BME280;5972;42.134;24.718;2023-04-01T01:45:19;98788.84;;;11.45;100.00
11830;BME280;5972;42.134;24.718;2023-04-01T01:47:49;98799.88;;;11.30;100.00
11830;BME280;5972;42.134;24.718;2023-04-01T01:50:18;98788.44;;;11.43;100.00
11830;BME280;5972;42.134;24.718;2023-04-01T01:52:46;98781.84;;;11.41;100.00
11830;BME280;5972;42.134;24.718;2023-04-01T01:55:34;98769.91;;;11.45;100.00
11830;BME280;5972;42.134;24.718;2023-04-01T01:58:05;98761.41;;;11.47;100.00
11830;BME280;5972;42.134;24.718;2023-04-01T02:00:35;98761.00;;;11.45;100.00
11830;BME280;5972;42.134;24.718;2023-04-01T02:03:03;98754.97;;;11.29;100.00
11830;BME280;5972;42.134;24.718;2023-04-01T02:05:32;98755.25;;;11.20;100.00
11830;BME280;5972;42.134;24.718;2023-04-01T02:08:02;98757.00;;;10.82;100.00
11830;BME280;5972;42.134;24.718;2023-04-01T02:10:35;98755.19;;;10.64;100.00
11830;BME280;5972;42.134;24.718;2023-04-01T02:13:07;98758.91;;;10.56;100.00
11830;BME280;5972;42.134;24.718;2023-04-01T02:15:41;98739.78;;;10.22;100.00
11830;BME280;5972;42.134;24.718;2023-04-01T02:18:10;98764.84;;;10.65;100.00
11830;BME280;5972;42.134;24.718;2023-04-01T02:20:41;98777.09;;;10.81;100.00
11830;BME280;5972;42.134;24.718;2023-04-01T02:23:09;98779.16;;;10.65;100.00
11830;BME280;5972;42.134;24.718;2023-04-01T02:25:37;98785.59;;;10.80;100.00
11830;BME280;5972;42.134;24.718;2023-04-01T02:28:06;98778.78;;;10.67;100.00
11830;BME280;5972;42.134;24.718;2023-04-01T02:30:36;98758.56;;;10.83;100.00
11830;BME280;5972;42.134;24.718;2023-04-01T02:33:05;98752.06;;;10.88;100.00
11830;BME280;5972;42.134;24.718;2023-04-01T02:35:33;98745.41;;;10.82;100.00
11830;BME280;5972;42.134;24.718;2023-04-01T02:38:03;98747.94;;;10.71;100.00
11830;BME280;5972;42.134;24.718;2023-04-01T02:40:41;98756.31;;;10.63;100.00
11830;BME280;5972;42.134;24.718;2023-04-01T02:43:08;98750.09;;;10.59;100.00
11830;BME280;5972;42.134;24.718;2023-04-01T02:45:35;98748.22;;;10.63;100.00
11830;BME280;5972;42.134;24.718;2023-04-01T02:48:01;98759.06;;;10.66;100.00
11830;BME280;5972;42.134;24.718;2023-04-01T02:50:28;98756.84;;;10.72;100.00
11830;BME280;5972;42.134;24.718;2023-04-01T02:52:55;98753.78;;;10.73;100.00
11830;BME280;5972;42.134;24.718;2023-04-01T02:55:23;98759.56;;;10.72;100.00
11830;BME280;5972;42.134;24.718;2023-04-01T02:57:50;98754.50;;;10.70;100.00
11830;BME280;5972;42.134;24.718;2023-04-01T03:00:17;98750.09;;;10.59;100.00
11830;BME280;5972;42.134;24.718;2023-04-01T03:02:44;98748.25;;;10.66;100.00
11830;BME280;5972;42.134;24.718;2023-04-01T03:05:11;98745.63;;;10.70;100.00
11830;BME280;5972;42.134;24.718;2023-04-01T03:07:38;98744.53;;;10.74;100.00
11830;BME280;5972;42.134;24.718;2023-04-01T03:10:06;98744.25;;;10.83;100.00
11830;BME280;5972;42.134;24.718;2023-04-01T03:12:34;98742.59;;;10.75;100.00
11830;BME280;5972;42.134;24.718;2023-04-01T03:15:01;98747.16;;;10.71;100.00
11830;BME280;5972;42.134;24.718;2023-04-01T03:17:28;98756.91;;;10.75;100.00
11830;BME280;5972;42.134;24.718;2023-04-01T03:19:55;98751.50;;;10.75;100.00
11830;BME280;5972;42.134;24.718;2023-04-01T03:22:22;98747.31;;;10.55;100.00
11830;BME280;5972;42.134;24.718;2023-04-01T03:24:49;98735.59;;;10.48;100.00
11830;BME280;5972;42.134;24.718;2023-04-01T03:27:16;98723.06;;;10.62;100.00
11830;BME280;5972;42.134;24.718;2023-04-01T03:29:44;98732.44;;;10.68;100.00
11830;BME280;5972;42.134;24.718;2023-04-01T03:32:11;98723.31;;;10.54;100.00
11830;BME280;5972;42.134;24.718;2023-04-01T03:34:37;98737.38;;;10.63;100.00
11830;BME280;5972;42.134;24.718;2023-04-01T03:37:04;98712.75;;;10.45;100.00
11830;BME280;5972;42.134;24.718;2023-04-01T03:39:31;98712.63;;;10.38;100.00
11830;BME280;5972;42.134;24.718;2023-04-01T03:41:58;98710.41;;;10.21;100.00
11830;BME280;5972;42.134;24.718;2023-04-01T03:44:25;98717.22;;;10.15;100.00
11830;BME280;5972;42.134;24.718;2023-04-01T03:46:54;98714.50;;;9.92;100.00
11830;BME280;5972;42.134;24.718;2023-04-01T03:49:20;98720.00;;;9.95;100.00
11830;BME280;5972;42.134;24.718;2023-04-01T03:51:47;98724.91;;;9.90;100.00
11830;BME280;5972;42.134;24.718;2023-04-01T03:54:14;98726.63;;;9.79;100.00
11830;BME280;5972;42.134;24.718;2023-04-01T03:56:42;98716.81;;;9.71;100.00
11830;BME280;5972;42.134;24.718;2023-04-01T03:59:09;98712.78;;;9.80;100.00
11830;BME280;5972;42.134;24.718;2023-04-01T04:01:35;98704.94;;;9.75;100.00
11830;BME280;5972;42.134;24.718;2023-04-01T04:04:04;98703.19;;;9.64;100.00
11830;BME280;5972;42.134;24.718;2023-04-01T04:06:31;98707.94;;;9.70;100.00
11830;BME280;5972;42.134;24.718;2023-04-01T04:08:58;98714.59;;;9.76;100.00
11830;BME280;5972;42.134;24.718;2023-04-01T04:11:25;98706.00;;;9.71;100.00
11830;BME280;5972;42.134;24.718;2023-04-01T04:13:52;98707.38;;;9.80;100.00
11830;BME280;5972;42.134;24.718;2023-04-01T04:16:19;98703.63;;;9.88;100.00
11830;BME280;5972;42.134;24.718;2023-04-01T04:18:46;98709.59;;;9.97;100.00
11830;BME280;5972;42.134;24.718;2023-04-01T04:21:14;98707.94;;;10.12;100.00
11830;BME280;5972;42.134;24.718;2023-04-01T04:23:42;98715.59;;;10.29;100.00
11830;BME280;5972;42.134;24.718;2023-04-01T04:26:10;98711.66;;;10.50;100.00
11830;BME280;5972;42.134;24.718;2023-04-01T04:28:38;98708.22;;;10.75;100.00
11830;BME280;5972;42.134;24.718;2023-04-01T04:31:05;98703.00;;;10.90;100.00
11830;BME280;5972;42.134;24.718;2023-04-01T04:33:33;98706.66;;;11.04;100.00
11830;BME280;5972;42.134;24.718;2023-04-01T04:36:00;98709.38;;;11.04;100.00
11830;BME280;5972;42.134;24.718;2023-04-01T04:38:29;98714.00;;;11.04;100.00
11830;BME280;5972;42.134;24.718;2023-04-01T04:40:56;98709.72;;;11.29;100.00
11830;BME280;5972;42.134;24.718;2023-04-01T04:43:23;98707.34;;;11.57;100.00
11830;BME280;5972;42.134;24.718;2023-04-01T04:45:50;98711.97;;;11.53;100.00
11830;BME280;5972;42.134;24.718;2023-04-01T04:48:17;98682.53;;;11.52;100.00
11830;BME280;5972;42.134;24.718;2023-04-01T04:50:46;98684.22;;;11.67;100.00
11830;BME280;5972;42.134;24.718;2023-04-01T04:53:14;98721.38;;;11.96;100.00
11830;BME280;5972;42.134;24.718;2023-04-01T04:55:46;98717.09;;;11.95;100.00
11830;BME280;5972;42.134;24.718;2023-04-01T04:58:14;98711.34;;;12.04;100.00
11830;BME280;5972;42.134;24.718;2023-04-01T05:00:41;98722.72;;;12.17;100.00
11830;BME280;5972;42.134;24.718;2023-04-01T05:03:08;98714.22;;;12.22;100.00
11830;BME280;5972;42.134;24.718;2023-04-01T05:05:36;98713.06;;;12.19;100.00
11830;BME280;5972;42.134;24.718;2023-04-01T05:08:03;98713.53;;;12.32;100.00
11830;BME280;5972;42.134;24.718;2023-04-01T05:10:30;98714.47;;;12.46;100.00
11830;BME280;5972;42.134;24.718;2023-04-01T05:12:58;98715.34;;;12.61;100.00
11830;BME280;5972;42.134;24.718;2023-04-01T05:15:25;98722.47;;;12.83;100.00
11830;BME280;5972;42.134;24.718;2023-04-01T05:17:51;98722.19;;;12.99;100.00
11830;BME280;5972;42.134;24.718;2023-04-01T05:20:18;98701.31;;;13.10;100.00
11830;BME280;5972;42.134;24.718;2023-04-01T05:22:45;98703.72;;;13.19;100.00
11830;BME280;5972;42.134;24.718;2023-04-01T05:25:12;98694.88;;;13.36;100.00
11830;BME280;5972;42.134;24.718;2023-04-01T05:27:39;98698.78;;;13.46;100.00
11830;BME280;5972;42.134;24.718;2023-04-01T05:30:08;98702.63;;;13.30;100.00
11830;BME280;5972;42.134;24.718;2023-04-01T05:32:35;98676.63;;;12.71;100.00
11830;BME280;5972;42.134;24.718;2023-04-01T05:35:02;98704.34;;;11.99;100.00
11830;BME280;5972;42.134;24.718;2023-04-01T05:37:29;98691.91;;;12.39;100.00
11830;BME280;5972;42.134;24.718;2023-04-01T05:39:56;98683.81;;;12.42;100.00
11830;BME280;5972;42.134;24.718;2023-04-01T05:42:24;98661.19;;;12.24;100.00
11830;BME280;5972;42.134;24.718;2023-04-01T05:44:51;98665.47;;;12.25;100.00
11830;BME280;5972;42.134;24.718;2023-04-01T05:47:19;98662.31;;;12.20;100.00
11830;BME280;5972;42.134;24.718;2023-04-01T05:49:46;98648.34;;;12.18;100.00
11830;BME280;5972;42.134;24.718;2023-04-01T05:52:12;98659.16;;;12.14;100.00
11830;BME280;5972;42.134;24.718;2023-04-01T05:54:39;98651.84;;;12.18;100.00
11830;BME280;5972;42.134;24.718;2023-04-01T05:57:06;98634.03;;;12.21;100.00
11830;BME280;5972;42.134;24.718;2023-04-01T05:59:33;98642.06;;;12.06;100.00
11830;BME280;5972;42.134;24.718;2023-04-01T06:02:00;98635.63;;;12.25;100.00
11830;BME280;5972;42.134;24.718;2023-04-01T06:04:34;98630.94;;;12.22;100.00
11830;BME280;5972;42.134;24.718;2023-04-01T06:07:09;98655.97;;;12.05;100.00
11830;BME280;5972;42.134;24.718;2023-04-01T06:09:37;98639.88;;;12.26;100.00
11830;BME280;5972;42.134;24.718;2023-04-01T06:12:35;98629.72;;;12.16;100.00
11830;BME280;5972;42.134;24.718;2023-04-01T06:15:20;98605.44;;;12.30;100.00
11830;BME280;5972;42.134;24.718;2023-04-01T06:18:03;98600.31;;;12.18;100.00
11830;BME280;5972;42.134;24.718;2023-04-01T06:20:40;98596.31;;;12.05;100.00
11830;BME280;5972;42.134;24.718;2023-04-01T06:23:19;98600.19;;;12.04;100.00
11830;BME280;5972;42.134;24.718;2023-04-01T06:26:03;98576.44;;;11.87;100.00
11830;BME280;5972;42.134;24.718;2023-04-01T06:29:00;98609.66;;;12.24;100.00
11830;BME280;5972;42.134;24.718;2023-04-01T06:31:51;98613.09;;;12.18;100.00
11830;BME280;5972;42.134;24.718;2023-04-01T06:43:34;98618.00;;;12.01;100.00
11830;BME280;5972;42.134;24.718;2023-04-01T06:46:11;98590.28;;;11.75;100.00
11830;BME280;5972;42.134;24.718;2023-04-01T06:48:53;98597.00;;;11.91;100.00
11830;BME280;5972;42.134;24.718;2023-04-01T06:51:33;98608.03;;;12.16;100.00
11830;BME280;5972;42.134;24.718;2023-04-01T06:54:09;98598.44;;;12.26;100.00
11830;BME280;5972;42.134;24.718;2023-04-01T06:56:41;98620.41;;;12.72;100.00
11830;BME280;5972;42.134;24.718;2023-04-01T06:59:12;98622.69;;;12.63;100.00
11830;BME280;5972;42.134;24.718;2023-04-01T07:01:46;98629.94;;;12.41;100.00
11830;BME280;5972;42.134;24.718;2023-04-01T07:04:17;98628.38;;;12.40;100.00
11830;BME280;5972;42.134;24.718;2023-04-01T07:06:48;98625.44;;;12.66;100.00
11830;BME280;5972;42.134;24.718;2023-04-01T07:09:19;98604.06;;;12.61;100.00
11830;BME280;5972;42.134;24.718;2023-04-01T07:11:50;98595.25;;;12.75;100.00
11830;BME280;5972;42.134;24.718;2023-04-01T07:14:22;98589.03;;;12.74;100.00
11830;BME280;5972;42.134;24.718;2023-04-01T07:16:56;98594.94;;;12.87;100.00
11830;BME280;5972;42.134;24.718;2023-04-01T07:19:30;98588.31;;;12.88;100.00
11830;BME280;5972;42.134;24.718;2023-04-01T07:22:01;98577.06;;;12.86;100.00
11830;BME280;5972;42.134;24.718;2023-04-01T07:24:34;98558.81;;;12.83;100.00
11830;BME280;5972;42.134;24.718;2023-04-01T07:27:02;98563.53;;;13.00;100.00
11830;BME280;5972;42.134;24.718;2023-04-01T07:29:29;98559.34;;;13.13;100.00
11830;BME280;5972;42.134;24.718;2023-04-01T07:32:12;98559.00;;;13.25;100.00
11830;BME280;5972;42.134;24.718;2023-04-01T07:34:50;98537.56;;;13.06;100.00
11830;BME280;5972;42.134;24.718;2023-04-01T07:37:27;98570.66;;;13.33;100.00
11830;BME280;5972;42.134;24.718;2023-04-01T07:40:03;98576.09;;;13.44;100.00
11830;BME280;5972;42.134;24.718;2023-04-01T07:42:41;98572.25;;;13.55;100.00
11830;BME280;5972;42.134;24.718;2023-04-01T07:45:18;98557.91;;;13.58;100.00
11830;BME280;5972;42.134;24.718;2023-04-01T07:47:59;98555.97;;;13.69;100.00
11830;BME280;5972;42.134;24.718;2023-04-01T07:50:32;98559.88;;;13.86;100.00
11830;BME280;5972;42.134;24.718;2023-04-01T07:53:08;98554.78;;;14.16;100.00
11830;BME280;5972;42.134;24.718;2023-04-01T07:55:45;98563.31;;;14.33;100.00
11830;BME280;5972;42.134;24.718;2023-04-01T07:58:23;98560.97;;;14.49;100.00
11830;BME280;5972;42.134;24.718;2023-04-01T08:01:01;98560.16;;;14.66;100.00
11830;BME280;5972;42.134;24.718;2023-04-01T08:03:35;98552.84;;;14.42;100.00
11830;BME280;5972;42.134;24.718;2023-04-01T08:06:10;98552.44;;;14.40;100.00
11830;BME280;5972;42.134;24.718;2023-04-01T08:08:48;98530.28;;;14.34;100.00
11830;BME280;5972;42.134;24.718;2023-04-01T08:11:32;98528.72;;;14.47;100.00
11830;BME280;5972;42.134;24.718;2023-04-01T08:14:12;98536.91;;;14.40;100.00
11830;BME280;5972;42.134;24.718;2023-04-01T08:16:48;98526.38;;;14.28;100.00
11830;BME280;5972;42.134;24.718;2023-04-01T08:19:25;98515.56;;;14.14;100.00
11830;BME280;5972;42.134;24.718;2023-04-01T08:21:57;98522.56;;;14.08;100.00
11830;BME280;5972;42.134;24.718;2023-04-01T08:24:29;98526.03;;;14.19;100.00
11830;BME280;5972;42.134;24.718;2023-04-01T08:27:01;98518.63;;;14.16;100.00
11830;BME280;5972;42.134;24.718;2023-04-01T08:29:38;98520.16;;;14.35;100.00
11830;BME280;5972;42.134;24.718;2023-04-01T08:32:09;98513.56;;;14.43;100.00
11830;BME280;5972;42.134;24.718;2023-04-01T08:34:39;98501.13;;;14.31;100.00
11830;BME280;5972;42.134;24.718;2023-04-01T08:37:11;98499.59;;;14.20;100.00
11830;BME280;5972;42.134;24.718;2023-04-01T08:39:45;98504.25;;;14.15;100.00
11830;BME280;5972;42.134;24.718;2023-04-01T08:42:38;98497.25;;;14.18;100.00
11830;BME280;5972;42.134;24.718;2023-04-01T08:45:29;98489.13;;;14.14;100.00
11830;BME280;5972;42.134;24.718;2023-04-01T08:48:34;98479.00;;;14.19;100.00
11830;BME280;5972;42.134;24.718;2023-04-01T08:51:15;98472.75;;;14.22;100.00
11830;BME280;5972;42.134;24.718;2023-04-01T08:54:11;98473.16;;;14.31;100.00
11830;BME280;5972;42.134;24.718;2023-04-01T08:56:49;98470.78;;;14.36;100.00
11830;BME280;5972;42.134;24.718;2023-04-01T08:59:44;98466.91;;;14.48;100.00
11830;BME280;5972;42.134;24.718;2023-04-01T09:02:44;98448.56;;;14.55;100.00
11830;BME280;5972;42.134;24.718;2023-04-01T09:05:32;98441.13;;;14.70;100.00
11830;BME280;5972;42.134;24.718;2023-04-01T09:08:14;98436.44;;;14.74;100.00
11830;BME280;5972;42.134;24.718;2023-04-01T09:11:08;98433.00;;;14.63;100.00
11830;BME280;5972;42.134;24.718;2023-04-01T09:14:07;98434.13;;;14.66;100.00
11830;BME280;5972;42.134;24.718;2023-04-01T09:17:08;98427.94;;;14.62;100.00
11830;BME280;5972;42.134;24.718;2023-04-01T09:20:02;98426.81;;;14.59;100.00
11830;BME280;5972;42.134;24.718;2023-04-01T09:22:46;98410.09;;;14.53;100.00
11830;BME280;5972;42.134;24.718;2023-04-01T09:25:41;98404.31;;;14.41;100.00
11830;BME280;5972;42.134;24.718;2023-04-01T09:28:18;98400.34;;;14.56;100.00
11830;BME280;5972;42.134;24.718;2023-04-01T09:31:06;98389.69;;;14.83;100.00
11830;BME280;5972;42.134;24.718;2023-04-01T09:34:04;98393.50;;;14.96;100.00
11830;BME280;5972;42.134;24.718;2023-04-01T09:36:44;98372.16;;;14.91;100.00
11830;BME280;5972;42.134;24.718;2023-04-01T09:39:26;98385.84;;;15.32;100.00
11830;BME280;5972;42.134;24.718;2023-04-01T09:42:21;98364.72;;;15.43;100.00
11830;BME280;5972;42.134;24.718;2023-04-01T09:44:56;98383.97;;;15.22;100.00
11830;BME280;5972;42.134;24.718;2023-04-01T09:47:38;98394.03;;;15.76;100.00
11830;BME280;5972;42.134;24.718;2023-04-01T09:50:17;98390.66;;;15.99;97.84
11830;BME280;5972;42.134;24.718;2023-04-01T09:52:57;98390.75;;;16.22;93.78
11830;BME280;5972;42.134;24.718;2023-04-01T09:55:57;98386.47;;;16.25;92.85
11830;BME280;5972;42.134;24.718;2023-04-01T09:58:42;98362.63;;;16.29;92.02
11830;BME280;5972;42.134;24.718;2023-04-01T10:07:58;98345.78;;;16.65;87.98
11830;BME280;5972;42.134;24.718;2023-04-01T10:10:52;98324.34;;;16.63;86.71
11830;BME280;5972;42.134;24.718;2023-04-01T10:13:52;98331.09;;;16.82;86.26
11830;BME280;5972;42.134;24.718;2023-04-01T10:26:11;98282.16;;;16.91;84.14
11830;BME280;5972;42.134;24.718;2023-04-01T10:35:23;98281.31;;;16.44;88.50
11830;BME280;5972;42.134;24.718;2023-04-01T10:38:19;98298.00;;;15.92;96.00
11830;BME280;5972;42.134;24.718;2023-04-01T10:44:17;98258.16;;;16.52;93.61
11830;BME280;5972;42.134;24.718;2023-04-01T10:47:18;98239.88;;;16.76;90.04
11830;BME280;5972;42.134;24.718;2023-04-01T10:50:25;98216.28;;;16.85;88.84
11830;BME280;5972;42.134;24.718;2023-04-01T10:56:41;98210.03;;;17.08;86.32
11830;BME280;5972;42.134;24.718;2023-04-01T10:59:31;98203.81;;;17.67;80.58
11830;BME280;5972;42.134;24.718;2023-04-01T11:02:38;98206.78;;;17.76;79.26
11830;BME280;5972;42.134;24.718;2023-04-01T11:05:56;98178.19;;;18.13;75.88
11830;BME280;5972;42.134;24.718;2023-04-01T11:21:33;98169.47;;;17.66;78.82
11830;BME280;5972;42.134;24.718;2023-04-01T11:24:34;98176.59;;;17.79;76.34
11830;BME280;5972;42.134;24.718;2023-04-01T11:27:39;98163.09;;;17.33;81.84
11830;BME280;5972;42.134;24.718;2023-04-01T11:30:21;98165.94;;;17.45;81.87
11830;BME280;5972;42.134;24.718;2023-04-01T11:32:59;98178.47;;;18.67;72.93
11830;BME280;5972;42.134;24.718;2023-04-01T11:39:08;98152.25;;;18.82;69.10
11830;BME280;5972;42.134;24.718;2023-04-01T11:41:56;98142.16;;;19.08;67.86
11830;BME280;5972;42.134;24.718;2023-04-01T11:44:31;98133.63;;;19.47;65.69
11830;BME280;5972;42.134;24.718;2023-04-01T11:47:22;98137.28;;;19.82;62.40
11830;BME280;5972;42.134;24.718;2023-04-01T11:50:10;98123.09;;;20.22;60.62
11830;BME280;5972;42.134;24.718;2023-04-01T11:53:05;98125.22;;;20.65;57.71
11830;BME280;5972;42.134;24.718;2023-04-01T11:55:53;98146.19;;;20.71;57.16
11830;BME280;5972;42.134;24.718;2023-04-01T11:58:51;98134.50;;;20.80;56.35
11830;BME280;5972;42.134;24.718;2023-04-01T12:04:54;98121.97;;;20.79;55.68
11830;BME280;5972;42.134;24.718;2023-04-01T12:07:55;98124.28;;;20.81;55.96
11830;BME280;5972;42.134;24.718;2023-04-01T12:10:44;98121.56;;;20.68;56.69
11830;BME280;5972;42.134;24.718;2023-04-01T12:13:26;98116.53;;;20.66;55.97
11830;BME280;5972;42.134;24.718;2023-04-01T12:16:09;98114.56;;;20.67;56.15
11830;BME280;5972;42.134;24.718;2023-04-01T12:18:53;98099.34;;;20.97;55.57
11830;BME280;5972;42.134;24.718;2023-04-01T12:25:02;98069.97;;;21.68;52.52
11830;BME280;5972;42.134;24.718;2023-04-01T12:27:52;98065.91;;;21.91;52.38
11830;BME280;5972;42.134;24.718;2023-04-01T12:31:27;98059.31;;;22.28;51.16
11830;BME280;5972;42.134;24.718;2023-04-01T12:38:21;98053.03;;;22.28;51.23
11830;BME280;5972;42.134;24.718;2023-04-01T12:41:25;98043.66;;;22.25;51.25
11830;BME280;5972;42.134;24.718;2023-04-01T12:44:23;98027.91;;;22.26;50.94
11830;BME280;5972;42.134;24.718;2023-04-01T12:50:57;98025.75;;;22.12;50.81
11830;BME280;5972;42.134;24.718;2023-04-01T12:53:45;98030.63;;;22.08;51.48
11830;BME280;5972;42.134;24.718;2023-04-01T12:56:26;98023.28;;;22.05;51.68
11830;BME280;5972;42.134;24.718;2023-04-01T12:59:19;98021.28;;;21.96;51.31
11830;BME280;5972;42.134;24.718;2023-04-01T13:02:01;98028.97;;;22.10;51.01
11830;BME280;5972;42.134;24.718;2023-04-01T13:08:14;98027.44;;;22.09;50.76
11830;BME280;5972;42.134;24.718;2023-04-01T13:14:28;98005.56;;;22.06;49.31
11830;BME280;5972;42.134;24.718;2023-04-01T13:20:00;98026.03;;;21.55;49.87
11830;BME280;5972;42.134;24.718;2023-04-01T13:22:41;98028.41;;;21.13;51.23
11830;BME280;5972;42.134;24.718;2023-04-01T13:25:35;98014.25;;;20.93;52.24
11830;BME280;5972;42.134;24.718;2023-04-01T13:28:11;98011.97;;;20.70;52.53
11830;BME280;5972;42.134;24.718;2023-04-01T13:30:49;98048.69;;;20.42;53.26
11830;BME280;5972;42.134;24.718;2023-04-01T13:33:31;98129.91;;;20.05;55.63
11830;BME280;5972;42.134;24.718;2023-04-01T13:36:19;98162.19;;;19.75;57.55
11830;BME280;5972;42.134;24.718;2023-04-01T13:39:06;98164.22;;;19.17;60.71
11830;BME280;5972;42.134;24.718;2023-04-01T13:42:16;98168.72;;;18.95;63.30
11830;BME280;5972;42.134;24.718;2023-04-01T13:48:41;98187.38;;;18.39;76.81
11830;BME280;5972;42.134;24.718;2023-04-01T13:51:31;98231.13;;;18.06;80.53
11830;BME280;5972;42.134;24.718;2023-04-01T13:54:23;98215.91;;;17.69;81.13
11830;BME280;5972;42.134;24.718;2023-04-01T13:57:05;98238.06;;;17.75;81.26
11830;BME280;5972;42.134;24.718;2023-04-01T14:00:00;98257.53;;;17.57;88.28
11830;BME280;5972;42.134;24.718;2023-04-01T14:08:45;98282.84;;;17.41;100.00
11830;BME280;5972;42.134;24.718;2023-04-01T14:11:23;98293.00;;;17.41;100.00
11830;BME280;5972;42.134;24.718;2023-04-01T14:14:01;98308.13;;;17.45;100.00
11830;BME280;5972;42.134;24.718;2023-04-01T14:17:04;98302.97;;;17.51;100.00
11830;BME280;5972;42.134;24.718;2023-04-01T14:19:53;98290.16;;;17.68;100.00
11830;BME280;5972;42.134;24.718;2023-04-01T14:22:33;98289.31;;;17.91;100.00
11830;BME280;5972;42.134;24.718;2023-04-01T14:25:31;98283.41;;;18.12;99.87
11830;BME280;5972;42.134;24.718;2023-04-01T14:28:14;98278.94;;;18.38;94.92
11830;BME280;5972;42.134;24.718;2023-04-01T14:30:52;98270.38;;;18.52;90.50
11830;BME280;5972;42.134;24.718;2023-04-01T14:33:31;98262.28;;;18.64;85.40
11830;BME280;5972;42.134;24.718;2023-04-01T14:38:55;98222.28;;;18.51;82.32
11830;BME280;5972;42.134;24.718;2023-04-01T14:41:40;98247.56;;;18.58;83.52
11830;BME280;5972;42.134;24.718;2023-04-01T14:44:22;98201.53;;;18.17;83.69
11830;BME280;5972;42.134;24.718;2023-04-01T14:50:06;98229.59;;;18.05;87.66
11830;BME280;5972;42.134;24.718;2023-04-01T14:52:38;98222.81;;;17.94;90.38
11830;BME280;5972;42.134;24.718;2023-04-01T14:55:20;98222.53;;;17.88;92.89
11830;BME280;5972;42.134;24.718;2023-04-01T14:57:59;98228.06;;;17.84;98.09
11830;BME280;5972;42.134;24.718;2023-04-01T15:00:27;98229.00;;;17.78;100.00
11830;BME280;5972;42.134;24.718;2023-04-01T15:03:11;98198.22;;;17.54;100.00
11830;BME280;5972;42.134;24.718;2023-04-01T15:05:46;98215.63;;;17.64;100.00
11830;BME280;5972;42.134;24.718;2023-04-01T15:08:19;98190.56;;;17.26;100.00
11830;BME280;5972;42.134;24.718;2023-04-01T15:11:01;98208.66;;;17.39;100.00
11830;BME280;5972;42.134;24.718;2023-04-01T15:13:57;98209.63;;;17.29;100.00
11830;BME280;5972;42.134;24.718;2023-04-01T15:16:34;98213.25;;;17.23;100.00
11830;BME280;5972;42.134;24.718;2023-04-01T15:19:14;98211.41;;;16.96;100.00
11830;BME280;5972;42.134;24.718;2023-04-01T15:22:05;98198.34;;;16.84;100.00